Halfmoon, New York
Current Conditions -  °F | °C
As of 1:51 AM on Thursday 23 Oct 2014 (Local Time) from KALB Reporting Station
Moderate Rain Moderate Rain  
Wind Chill: 44°   Ceiling: 2600
Heat Index: 49°   Visibility: 6mi
Dew Point: 43°   Wind: 13mph
Humidity: 80%   Direction: 10°N
Pressure: 29.91"   Gusts: 21mph
Location:  42.8536°N, 73.7851°W
Report Text: KALB 230551Z 01011G18KT 6SM RA OVC026 09/06 A2991 RMK AO2 SLP127 P0003 60007 T00940061 10111 20094 56009
Loading
Personal Weather Stations






























Interactive Weather Map
Tropical Storm Tracking
New forecast layout! Learn more

10-Day Weather Forecast

Advertisements
Track Severe Weather on mobile